Tiempo atmosférico en la estación meteorológica de Alosno, Huelva (276 m.)



Fecha
DESCASC
Temp. máxima en grados centígrados (hora)
DESCASC
Temp. mínima en grados centígrados (hora)
DESCASC
Temp. media en grados centígrados
DESCASC
Racha de viento máxima en m/sg (hora)
DESCASC
Velocidad máxima media en intervalos de 10 minutos(hora)
DESCASC
Precipitaciones diarias en mm
DESCASC
Precipitaciones de 00:00 a 06:00 en mm
DESCASC
Precipitaciones de 06:00 a 12:00 en mm
DESCASC
Precipitaciones de 12:00 a 18:00 en mm
DESCASC
Precipitaciones de 18:00 a 24:00 en mm
DESCASC

Gráficas

Temp. máximas Temp. mínimas Temp. medias Precipitaciones Rachas de viento máximas Velocidades máximas media en intervalos de 10 minutos

Datos horarios

Fecha y hora oficial Temperatura (ºC) Velocidad del viento (km/h) Dirección del viento Racha (km/h) Dirección de racha Precipitación (mm) Presión (hPa) Tendencia (hPa) Humedad (%)
2019-02-22 23:00:00 13.8 3 Sur 6 Sudoeste 0 -- -- 68
2019-02-22 22:00:00 14.3 4 Sudoeste 6 Oeste 0 -- -- 69
2019-02-22 21:00:00 14.2 0 Calma 6 Sudoeste 0 -- -- 71
2019-02-22 20:00:00 15.4 4 Sudoeste 9 Sudoeste 0 -- -- 66
2019-02-22 19:00:00 17.4 5 Sur 13 Sudeste 0 -- -- 56
2019-02-22 18:00:00 18.9 11 Sur 19 Sur 0 -- -- 51
2019-02-22 17:00:00 19.4 10 Sur 23 Sur 0 -- -- 51
2019-02-22 16:00:00 18.9 13 Sur 24 Sur 0 -- -- 50
2019-02-22 15:00:00 18.1 13 Sur 28 Sur 0 -- -- 52
2019-02-22 14:00:00 17.4 18 Sur 32 Sur 0 -- -- 50
2019-02-22 13:00:00 16.7 13 Sudeste 32 Sur 0 -- -- 51
2019-02-22 12:00:00 15.1 19 Sudeste 31 Este 0 -- -- 59
2019-02-22 11:00:00 12.9 11 Sudeste 26 Sudeste 0 -- -- 67
2019-02-22 10:00:00 10.8 12 Este 18 Sudeste 0 -- -- 74
2019-02-22 09:00:00 8.8 8 Este 13 Este 0 -- -- 81
2019-02-22 08:00:00 8 8 Este 19 Este 0 -- -- 84
2019-02-22 07:00:00 8.4 12 Sudeste 27 Este 0 -- -- 83
2019-02-22 06:00:00 8.6 12 Este 21 Este 0 -- -- 84
2019-02-22 05:00:00 9.1 10 Este 20 Sudeste 0 -- -- 83
2019-02-22 04:00:00 10.4 11 Sudeste 21 Sudeste 0 -- -- 78
2019-02-22 03:00:00 11 10 Sudeste 27 Sur 0 -- -- 74
2019-02-22 02:00:00 11.2 18 Sudeste 28 Sudeste 0 -- -- 74
2019-02-22 01:00:00 11.4 18 Sudeste 29 Sudeste 0 -- -- 76
2019-02-22 00:00:00 11.6 20 Sudeste 28 Sudeste 0 -- -- 78
2019-02-21 23:00:00 12.2 14 Sur 22 Sudeste 0 -- -- 81
2019-02-21 22:00:00 12.8 13 Sur 18 Sur 0 -- -- 81
2019-02-21 21:00:00 13.1 13 Sur 17 Sur 0 -- -- 79
2019-02-21 20:00:00 13.6 12 Sudoeste 18 Sur 0 -- -- 75
2019-02-21 19:00:00 14.8 14 Sur 27 Sur 0 -- -- 71
2019-02-21 18:00:00 16.8 12 Sudeste 26 Sudeste 0 -- -- 56
2019-02-21 17:00:00 17.9 10 Sudeste 26 Sudeste 0 -- -- 54
2019-02-21 16:00:00 17.9 12 Sudeste 28 Sur 0 -- -- 55
2019-02-21 15:00:00 17.3 13 Sur 29 Este 0 -- -- 53
2019-02-21 14:00:00 16.6 16 Sur 40 Sur 0 -- -- 57
2019-02-21 13:00:00 15.7 19 Sur 29 Sur 0 -- -- 57
2019-02-21 12:00:00 14.4 11 Sudeste 24 Sur 0 -- -- 67
2019-02-21 11:00:00 12.4 8 Sudeste 28 Este 0 -- -- 73
2019-02-21 10:00:00 10.1 15 Este 28 Sudeste 0 -- -- 81
2019-02-21 09:00:00 8.2 11 Este 20 Este 0 -- -- 87
2019-02-21 08:00:00 7 9 Este 15 Este 0 -- -- 90
2019-02-21 07:00:00 7.1 8 Este 15 Este 0 -- -- 89
2019-02-21 06:00:00 7.5 5 Este 12 Este 0 -- -- 90
2019-02-21 05:00:00 8.7 5 Este 9 Este 0 -- -- 87
2019-02-21 04:00:00 9.3 5 Este 13 Este 0 -- -- 89
2019-02-21 03:00:00 9.5 6 Este 11 Sur 0 -- -- 89
2019-02-21 02:00:00 11.2 9 Sur 16 Sur 0 -- -- 84
2019-02-21 01:00:00 11.4 10 Sur 14 Sur 0 -- -- 82
2019-02-21 00:00:00 10.9 4 Sur 7 Sur 0 -- -- 81
2019-02-20 23:00:00 11.5 5 Sudoeste 11 Sudoeste 0 -- -- 77
2019-02-20 22:00:00 12.4 3 Sudoeste 12 Sudoeste 0 -- -- 74
2019-02-20 21:00:00 12.6 7 Sudoeste 13 Oeste 0 -- -- 76
2019-02-20 20:00:00 13.5 4 Sudoeste 16 Sur 0 -- -- 76
2019-02-20 19:00:00 15.4 7 Sur 17 Sur 0 -- -- 65
2019-02-20 18:00:00 16.5 10 Sur 18 Sudeste 0 -- -- 59
2019-02-20 17:00:00 17.3 8 Sur 19 Sudeste 0 -- -- 62
2019-02-20 16:00:00 17.9 9 Sudeste 22 Sudoeste 0 -- -- 56
2019-02-20 15:00:00 16.7 10 Nordeste 14 Sur 0 -- -- 61
2019-02-20 14:00:00 15.8 5 Sudeste 12 Sudeste 0 -- -- 65
2019-02-20 13:00:00 14.9 8 Sur 13 Sur 0 -- -- 67
2019-02-20 12:00:00 14.7 5 Sur 9 Sudeste 0 -- -- 74
2019-02-20 11:00:00 12.2 5 Este 7 Este 0 -- -- 90
2019-02-20 10:00:00 9.7 3 Este 12 Este 0 -- -- 95
2019-02-20 09:00:00 9.2 5 Este 10 Sur 0 -- -- 97
2019-02-20 08:00:00 9.4 8 Sudeste 18 Sudeste 0 -- -- 95
2019-02-20 07:00:00 10.1 9 Sudeste 15 Sudeste 0 -- -- 85
2019-02-20 06:00:00 9.8 7 Sudeste 13 Este 0 -- -- 86
2019-02-20 05:00:00 9.5 9 Este 14 Este 0 -- -- 89
2019-02-20 04:00:00 10.3 4 Este 5 Nordeste 0 -- -- 87
2019-02-20 03:00:00 10.3 2 Nordeste 5 Este 0 -- -- 87
2019-02-20 02:00:00 10.4 3 Este 9 Este 0 -- -- 86
2019-02-20 01:00:00 10.6 5 Este 9 Este 0 -- -- 86
2019-02-20 00:00:00 10.9 5 Este 8 Nordeste 0 -- -- 85
2019-02-19 23:00:00 11.7 3 Nordeste 6 Norte 0 -- -- 84
2019-02-19 22:00:00 12.2 0 Calma 5 Norte 0 -- -- 80
2019-02-19 21:00:00 12.5 0 Calma 8 Norte 0 -- -- 78
2019-02-19 20:00:00 13.1 3 Norte 8 Nordeste 0 -- -- 77
2019-02-19 19:00:00 14.7 4 Sudeste 12 Sudoeste 0 -- -- 73
2019-02-19 18:00:00 16.1 10 Sudoeste 17 Sur 0 -- -- 69
2019-02-19 17:00:00 16.2 10 Sudoeste 18 Sudeste 0 -- -- 70
2019-02-19 16:00:00 16.7 7 Oeste 16 Sudoeste 0 -- -- 68
2019-02-19 15:00:00 16.9 11 Sur 17 Sur 0 -- -- 64
2019-02-19 14:00:00 16.5 8 Oeste 17 Sudoeste 0 -- -- 65
2019-02-19 13:00:00 15.7 4 Sur 15 Sur 0 -- -- 70
2019-02-19 12:00:00 14.4 4 Sur 10 Sur 0 -- -- 81
2019-02-19 11:00:00 12.9 3 Sudeste 6 Sur 0.2 -- -- 87
2019-02-19 10:00:00 11.8 0 Calma 6 Este 0 -- -- 93
2019-02-19 09:00:00 10.2 5 Este 8 Este 0 -- -- 96
2019-02-19 08:00:00 10.3 6 Este 8 Este 0 -- -- 94
2019-02-19 07:00:00 10.5 6 Este 9 Este 0 -- -- 94
2019-02-19 06:00:00 10.4 3 Este 6 Este 0 -- -- 96
2019-02-19 05:00:00 10.4 4 Este 10 Este 0 -- -- 96
2019-02-19 04:00:00 10.5 4 Sudeste 9 Este 0 -- -- 96
2019-02-19 03:00:00 10.9 5 Este 10 Este 0 -- -- 95
2019-02-19 02:00:00 11.5 6 Sudeste 15 Sudeste 0 -- -- 90
2019-02-19 01:00:00 11.5 6 Sur 15 Sur 0 -- -- 89
2019-02-19 00:00:00 12.1 13 Sur 28 Sudeste 0 -- -- 84
2019-02-18 23:00:00 11.6 3 Este 6 Este 0 -- -- 88
2019-02-18 22:00:00 11.3 3 Sudeste 4 Este 0 -- -- 90
2019-02-18 21:00:00 10.9 0 Calma 9 Noroeste 0 -- -- 93
2019-02-18 20:00:00 11 4 Norte 9 Sudoeste 0 -- -- 94
2019-02-18 19:00:00 11.7 4 Sudoeste 9 Sudoeste 0 -- -- 93
2019-02-18 18:00:00 11.7 2 Nordeste 18 Sur 0.2 -- -- 91
2019-02-18 17:00:00 11.7 14 Sur 19 Sur 0 -- -- 87
2019-02-18 16:00:00 11.5 10 Sur 35 Sur 0.8 -- -- 91
2019-02-18 15:00:00 11.9 26 Sur 43 Sudeste 0.2 -- -- 86
2019-02-18 14:00:00 12.5 11 Este 22 Este 0 -- -- 87
2019-02-18 13:00:00 11.1 9 Este 21 Este 2.4 -- -- 92
2019-02-18 12:00:00 9.9 9 Sur 24 Sudeste 1.4 -- -- 94
2019-02-18 11:00:00 10 11 Sudeste 25 Sudeste 2.2 -- -- 93
2019-02-18 10:00:00 9.9 12 Sudeste 31 Sur 2.6 -- -- 92
2019-02-18 09:00:00 10.6 8 Sudeste 28 Sudeste 0 -- -- 85
2019-02-18 08:00:00 10.5 12 Sudeste 32 Sur 0 -- -- 86
2019-02-18 07:00:00 10.3 14 Sudeste 29 Sudeste 0 -- -- 88
2019-02-18 06:00:00 10 11 Sudeste 27 Este 0 -- -- 90
2019-02-18 05:00:00 10.3 9 Sudeste 27 Sudeste 0 -- -- 92
2019-02-18 04:00:00 10.5 13 Sur 28 Sur 0 -- -- 92
2019-02-18 03:00:00 10.5 12 Sudeste 28 Sudeste 0 -- -- 93
2019-02-18 02:00:00 10.5 14 Sudeste 32 Sur 0 -- -- 93
2019-02-18 01:00:00 10.7 15 Sur 26 Sur 0 -- -- 94
2019-02-18 00:00:00 11.4 10 Sudeste 28 Sudeste 0 -- -- 94
2019-02-17 23:00:00 12 15 Sur 25 Sudeste 0 -- -- 92
2019-02-17 22:00:00 12 14 Sudeste 24 Sudeste 0 -- -- 90
2019-02-17 21:00:00 12.1 8 Sur 21 Sudeste 0 -- -- 91
2019-02-17 20:00:00 12.3 12 Sur 24 Sur 0 -- -- 88
2019-02-17 19:00:00 13.2 14 Sur 36 Sur 0 -- -- 79
2019-02-17 18:00:00 14.5 23 Sur 46 Sur 0 -- -- 69
2019-02-17 17:00:00 15.9 26 Sur 47 Sur 0 -- -- 64
2019-02-17 16:00:00 16.4 33 Sur 47 Sur 0 -- -- 56
2019-02-17 15:00:00 16.2 18 Sudeste 34 Sudeste 0 -- -- 59
2019-02-17 14:00:00 15.8 14 Sudeste 32 Sur 0 -- -- 59
2019-02-17 13:00:00 15.1 18 Sur 34 Sudeste 0 -- -- 58
2019-02-17 12:00:00 14.1 11 Sudeste 26 Sur 0 -- -- 64
2019-02-17 11:00:00 12.8 8 Este 15 Este 0 -- -- 69
2019-02-17 10:00:00 10 6 Este 11 Este 0 -- -- 79
2019-02-17 09:00:00 8 8 Este 14 Nordeste 0 -- -- 82
2019-02-17 08:00:00 7.2 7 Este 11 Este 0 -- -- 83
2019-02-17 07:00:00 7 7 Este 10 Este 0 -- -- 81
2019-02-17 06:00:00 6.8 5 Nordeste 8 Este 0 -- -- 77
2019-02-17 05:00:00 7.1 8 Este 12 Este 0 -- -- 78
2019-02-17 04:00:00 7.6 4 Nordeste 10 Este 0 -- -- 81
2019-02-17 03:00:00 8.3 0 Calma 6 Este 0 -- -- 82
2019-02-17 02:00:00 9 5 Nordeste 9 Este 0 -- -- 85
2019-02-17 01:00:00 9.5 3 Este 16 Sudoeste 0 -- -- 84
2019-02-17 00:00:00 10.4 8 Sudoeste 18 Sudoeste 0 -- -- 83
2019-02-16 23:00:00 11.2 10 Sur 15 Sudoeste 0 -- -- 79
2019-02-16 22:00:00 11.5 9 Sudoeste 13 Sudoeste 0 -- -- 72
2019-02-16 21:00:00 12.8 3 Sudeste 6 Sudeste 0 -- -- 66
2019-02-16 20:00:00 13.4 0 Calma 12 Sudoeste 0 -- -- 64
2019-02-16 19:00:00 15 6 Sur 14 Sur 0 -- -- 61
2019-02-16 18:00:00 16.4 8 Sur 26 Sur 0 -- -- 56
2019-02-16 17:00:00 16.6 10 Sudeste 24 Sudeste 0 -- -- 53
2019-02-16 16:00:00 15.8 13 Sudeste 29 Sudeste 0 -- -- 52
2019-02-16 15:00:00 17.6 11 Sur 28 Sudeste 0 -- -- 54
2019-02-16 14:00:00 16 13 Sudeste 35 Este 0 -- -- 53
2019-02-16 13:00:00 14.2 14 Sudeste 31 Sudeste 0 -- -- 59
2019-02-16 12:00:00 13.9 12 Este 29 Este 0 -- -- 60
2019-02-16 11:00:00 12.6 6 Este 10 Este 0 -- -- 67
2019-02-16 10:00:00 10.4 4 Este 7 Nordeste 0 -- -- 75
2019-02-16 09:00:00 9.9 5 Este 14 Este 0 -- -- 76
2019-02-16 08:00:00 10.9 10 Sudeste 21 Sudeste 0 -- -- 71
2019-02-16 07:00:00 9.4 5 Este 8 Este 0 -- -- 81
2019-02-16 06:00:00 9.1 3 Este 12 Sudeste 0 -- -- 83
2019-02-16 05:00:00 9.8 7 Este 17 Este 0 -- -- 79
2019-02-16 04:00:00 10.6 8 Sudeste 25 Sudeste 0 -- -- 75
2019-02-16 03:00:00 10.4 9 Sur 18 Sur 0 -- -- 78
2019-02-16 02:00:00 11 5 Nordeste 15 Este 0 -- -- 77
2019-02-16 01:00:00 11.6 6 Este 18 Este 0 -- -- 76
2019-02-16 00:00:00 12.4 3 Este 7 Sudeste 0 -- -- 74
2019-02-15 23:00:00 13.3 3 Este 5 Este 0 -- -- 69
2019-02-15 22:00:00 13.1 2 Este 6 Sudoeste 0 -- -- 70
2019-02-15 21:00:00 13.6 6 Oeste 9 Sudoeste 0 -- -- 69
2019-02-15 20:00:00 14.9 10 Sur 18 Sur 0 -- -- 64
2019-02-15 19:00:00 15.8 13 Sur 16 Sudoeste 0 -- -- 64
2019-02-15 18:00:00 18.5 5 Sudeste 14 Sudeste 0 -- -- 50
2019-02-15 17:00:00 19.3 8 Este 22 Este 0 -- -- 49
2019-02-15 16:00:00 19.3 5 Este 15 Este 0 -- -- 49
2019-02-15 15:00:00 18.8 10 Este 17 Nordeste 0 -- -- 51
2019-02-15 14:00:00 18.4 8 Este 19 Sudeste 0 -- -- 51
2019-02-15 13:00:00 16.7 12 Este 21 Este 0 -- -- 57
2019-02-15 12:00:00 14.1 13 Este 26 Sudeste 0 -- -- 69
2019-02-15 11:00:00 12.2 13 Este 21 Este 0 -- -- 76
2019-02-15 10:00:00 9.1 7 Este 13 Este 0 -- -- 83
2019-02-15 09:00:00 7.7 8 Este 11 Este 0 -- -- 84
2019-02-15 08:00:00 6.9 6 Este 11 Este 0 -- -- 86
2019-02-15 07:00:00 7.3 6 Este 14 Este 0 -- -- 86
2019-02-15 06:00:00 7.6 8 Este 12 Este 0 -- -- 86
2019-02-15 05:00:00 8.3 6 Este 12 Este 0 -- -- 85
2019-02-15 04:00:00 8.5 6 Este 16 Este 0 -- -- 84
2019-02-15 03:00:00 9.4 9 Este 20 Sudeste 0 -- -- 79
2019-02-15 02:00:00 9.8 10 Sudeste 22 Sudeste 0 -- -- 78
2019-02-15 01:00:00 10.5 12 Sudeste 26 Sudeste 0 -- -- 74
2019-02-15 00:00:00 10.7 15 Sudeste 28 Sudeste 0 -- -- 75
2019-02-14 23:00:00 11.4 14 Sur 27 Sudeste 0 -- -- 78
2019-02-14 22:00:00 12.1 13 Sudeste 24 Sudeste 0 -- -- 76
2019-02-14 21:00:00 12.7 16 Sudeste 25 Sudeste 0 -- -- 74
2019-02-14 20:00:00 13.6 12 Sur 27 Sur 0 -- -- 72
2019-02-14 19:00:00 15.3 13 Sur 26 Sur 0 -- -- 67
2019-02-14 18:00:00 17.6 15 Sudeste 29 Sudeste 0 -- -- 56
2019-02-14 17:00:00 18.2 14 Sudeste 39 Sur 0 -- -- 52
2019-02-14 16:00:00 18.3 16 Sur 38 Sudeste 0 -- -- 52
2019-02-14 15:00:00 17.2 21 Sudeste 37 Sur 0 -- -- 56
2019-02-14 14:00:00 16.7 17 Sur 40 Sur 0 -- -- 60
2019-02-14 13:00:00 15.6 15 Sudeste 32 Sur 0 -- -- 61
2019-02-14 12:00:00 14.3 13 Sudeste 28 Este 0 -- -- 66
2019-02-14 11:00:00 12 13 Este 32 Sudeste 0 -- -- 72
2019-02-14 10:00:00 10.1 15 Este 30 Sudeste 0 -- -- 78
2019-02-14 09:00:00 8.7 17 Sudeste 29 Sudeste 0 -- -- 80
2019-02-14 08:00:00 8 15 Sudeste 25 Este 0 -- -- 83
2019-02-14 07:00:00 7.3 12 Este 17 Este 0 -- -- 87
2019-02-14 06:00:00 7.3 9 Este 16 Sudeste 0 -- -- 87
2019-02-14 05:00:00 7.4 7 Este 14 Sudeste 0 -- -- 89
2019-02-14 04:00:00 8.7 6 Este 19 Sudeste 0 -- -- 86
2019-02-14 03:00:00 8.7 6 Este 10 Sudeste 0 -- -- 87
2019-02-14 02:00:00 9.3 8 Este 13 Sudeste 0 -- -- 90
2019-02-14 01:00:00 10.7 12 Sur 17 Sur 0 -- -- 87
2019-02-14 00:00:00 10.8 14 Sur 17 Sur 0 -- -- 87
2019-02-13 23:00:00 11.5 14 Sudoeste 19 Sudoeste 0 -- -- 84
2019-02-13 22:00:00 12.3 12 Sur 17 Sur 0 -- -- 72
2019-02-13 21:00:00 12.5 3 Sur 14 Sur 0 -- -- 71
2019-02-13 20:00:00 14.5 10 Sudeste 16 Sur 0 -- -- 62
2019-02-13 19:00:00 15.1 9 Sur 22 Sur 0 -- -- 61
2019-02-13 18:00:00 16.5 13 Sudeste 23 Sudeste 0 -- -- 55
2019-02-13 17:00:00 17.5 13 Sur 22 Sudeste 0 -- -- 52
2019-02-13 16:00:00 17.4 13 Sudeste 23 Sudeste 0 -- -- 52
2019-02-13 15:00:00 17.1 9 Este 22 Este 0 -- -- 55
2019-02-13 14:00:00 16.4 11 Sur 22 Nordeste 0 -- -- 55
2019-02-13 13:00:00 15.2 9 Este 23 Este 0 -- -- 62
2019-02-13 12:00:00 13.9 10 Este 21 Este 0 -- -- 66
2019-02-13 11:00:00 12.2 12 Este 21 Este 0 -- -- 71
2019-02-13 10:00:00 10.9 13 Este 28 Este 0 -- -- 75
2019-02-13 09:00:00 9 12 Este 18 Este 0 -- -- 84
2019-02-13 08:00:00 7.7 7 Este 13 Este 0 -- -- 88
2019-02-13 07:00:00 7.9 8 Este 15 Este 0 -- -- 86
2019-02-13 06:00:00 8.1 6 Este 13 Este 0 -- -- 84
2019-02-13 05:00:00 8.6 6 Este 12 Este 0 -- -- 84
2019-02-13 04:00:00 9.2 6 Este 10 Este 0 -- -- 84
2019-02-13 03:00:00 9.6 5 Este 14 Este 0 -- -- 87
2019-02-13 02:00:00 10.5 3 Este 9 Este 0 -- -- 86
2019-02-13 01:00:00 11 4 Este 9 Este 0 -- -- 88
2019-02-13 00:00:00 11.4 4 Sudeste 8 Sudeste 0 -- -- 86
2019-02-12 23:00:00 12.2 3 Sur 8 Sudoeste 0 -- -- 85
2019-02-12 22:00:00 13.1 3 Sudoeste 15 Sur 0 -- -- 78
2019-02-12 21:00:00 15.3 6 Sudeste 12 Sudeste 0 -- -- 64
2019-02-12 20:00:00 15.7 8 Sur 12 Sur 0 -- -- 61
2019-02-12 19:00:00 16.9 10 Sur 14 Sur 0 -- -- 58
2019-02-12 18:00:00 17.5 4 Nordeste 19 Este 0 -- -- 57
2019-02-12 17:00:00 18.8 5 Nordeste 10 Nordeste 0 -- -- 53
2019-02-12 16:00:00 18.6 8 Sudeste 17 Sur 0 -- -- 55
2019-02-12 15:00:00 18.2 7 Este 15 Sur 0 -- -- 54
2019-02-12 14:00:00 17.7 8 Sur 18 Sur 0 -- -- 56
2019-02-12 13:00:00 17.3 7 Sur 13 Sudeste 0 -- -- 57
2019-02-12 12:00:00 15.8 6 Este 15 Este 0 -- -- 62
2019-02-12 11:00:00 14 9 Este 19 Este 0 -- -- 64
2019-02-12 10:00:00 12 4 Este 9 Este 0 -- -- 71
2019-02-12 09:00:00 10 6 Este 12 Este 0 -- -- 74
2019-02-12 08:00:00 9.2 5 Este 11 Este 0 -- -- 75
2019-02-12 07:00:00 9.4 7 Este 11 Este 0 -- -- 74
2019-02-12 06:00:00 9.8 8 Este 12 Este 0 -- -- 72
2019-02-12 05:00:00 9.7 7 Este 13 Este 0 -- -- 72
2019-02-12 04:00:00 9.6 5 Este 12 Este 0 -- -- 73
2019-02-12 03:00:00 9.9 5 Este 10 Este 0 -- -- 72
2019-02-12 02:00:00 10 6 Este 10 Este 0 -- -- 71
2019-02-12 01:00:00 10.8 4 Este 6 Nordeste 0 -- -- 71
2019-02-12 00:00:00 11.1 3 Nordeste 6 Este 0 -- -- 72
2019-02-11 23:00:00 10.8 4 Nordeste 11 Nordeste 0 -- -- 75
2019-02-11 22:00:00 11.3 7 Nordeste 10 Norte 0 -- -- 72
2019-02-11 21:00:00 11.7 7 Norte 18 Noroeste 0 -- -- 72
2019-02-11 20:00:00 12.1 9 Norte 18 Noroeste 0 -- -- 76
2019-02-11 19:00:00 13.8 12 Norte 24 Noroeste 0 -- -- 64
2019-02-11 18:00:00 15.7 14 Norte 26 Noroeste 0 -- -- 50
2019-02-11 17:00:00 16.4 17 Noroeste 27 Norte 0 -- -- 47
2019-02-11 16:00:00 16.7 15 Noroeste 29 Noroeste 0 -- -- 45
2019-02-11 15:00:00 16.1 16 Noroeste 26 Noroeste 0 -- -- 50
2019-02-11 14:00:00 14.9 18 Noroeste 27 Noroeste 0 -- -- 62
2019-02-11 13:00:00 13.6 16 Noroeste 25 Noroeste 0 -- -- 65
2019-02-11 12:00:00 12.1 12 Noroeste 22 Noroeste 0.2 -- -- 76
2019-02-11 11:00:00 -- -- -- -- -- -- -- -- --
2019-02-11 10:00:00 -- -- -- -- -- -- -- -- --
2019-02-11 09:00:00 9.9 11 Noroeste 17 Noroeste 0 -- -- 98
2019-02-11 08:00:00 10.9 10 Noroeste 16 Noroeste 0 -- -- 100
2019-02-11 07:00:00 11.7 10 Noroeste 23 Noroeste 0 -- -- 100
2019-02-11 06:00:00 12.2 9 Noroeste 17 Noroeste 0 -- -- 100
2019-02-11 05:00:00 12.2 10 Oeste 17 Oeste 0 -- -- 100
2019-02-11 04:00:00 11.9 7 Oeste 17 Noroeste 0.4 -- -- 99
2019-02-11 03:00:00 12.3 10 Oeste 19 Oeste 0.2 -- -- 98
2019-02-11 02:00:00 12.2 13 Oeste 21 Oeste 0 -- -- 97
2019-02-11 01:00:00 12.2 6 Oeste 15 Oeste 0 -- -- 93
2019-02-11 00:00:00 12.4 8 Oeste 15 Oeste 0 -- -- 90
2019-02-10 23:00:00 12.5 6 Oeste 15 Oeste 0 -- -- 88
2019-02-10 22:00:00 12.7 7 Oeste 14 Oeste 0 -- -- 87
2019-02-10 21:00:00 13.2 6 Oeste 10 Oeste 0 -- -- 85
2019-02-10 20:00:00 13.4 7 Oeste 13 Oeste 0 -- -- 84
2019-02-10 19:00:00 13.5 8 Oeste 15 Oeste 0 -- -- 82
2019-02-10 18:00:00 14.6 10 Oeste 21 Oeste 0 -- -- 77
2019-02-10 17:00:00 15 13 Oeste 22 Oeste 0 -- -- 73
2019-02-10 16:00:00 15.7 12 Oeste 24 Norte 0 -- -- 70
2019-02-10 15:00:00 16.4 14 Noroeste 26 Oeste 0 -- -- 62
2019-02-10 14:00:00 16 12 Noroeste 21 Noroeste 0 -- -- 62
2019-02-10 13:00:00 15.8 6 Oeste 16 Oeste 0 -- -- 64
2019-02-10 12:00:00 14.3 6 Sudoeste 13 Noroeste 0 -- -- 72
2019-02-10 11:00:00 11.8 9 Noroeste 13 Noroeste 0 -- -- 83
2019-02-10 10:00:00 9.1 7 Noroeste 13 Noroeste 0 -- -- 96
2019-02-10 09:00:00 7.6 8 Noroeste 10 Noroeste 0 -- -- 98
2019-02-10 08:00:00 7.3 5 Noroeste 11 Noroeste 0 -- -- 97
2019-02-10 07:00:00 7.5 9 Noroeste 12 Noroeste 0 -- -- 96
2019-02-10 06:00:00 7.6 5 Noroeste 13 Noroeste 0 -- -- 97
2019-02-10 05:00:00 7.7 10 Noroeste 13 Noroeste 0 -- -- 97
2019-02-10 04:00:00 8 12 Noroeste 17 Noroeste 0 -- -- 98
2019-02-10 03:00:00 8.2 9 Noroeste 14 Noroeste 0 -- -- 97
2019-02-10 02:00:00 9.2 2 Noroeste 3 Noroeste 0 -- -- 96
2019-02-10 01:00:00 9.2 0 Calma 4 Norte 0 -- -- 96
2019-02-10 00:00:00 9.1 2 Norte 6 Norte 0 -- -- 95
2019-02-09 23:00:00 9.7 7 Sudoeste 14 Sur 0 -- -- 93
2019-02-09 22:00:00 10.4 10 Sur 13 Sudoeste 0 -- -- 91
2019-02-09 21:00:00 10.9 9 Sudoeste 14 Sudoeste 0 -- -- 89
2019-02-09 20:00:00 11.4 10 Sudoeste 19 Sudoeste 0 -- -- 86
2019-02-09 19:00:00 13.1 14 Sur 21 Sudoeste 0 -- -- 78
2019-02-09 18:00:00 14.5 4 Noroeste 13 Noroeste 0 -- -- 66
2019-02-09 17:00:00 15.9 9 Noroeste 21 Oeste 0 -- -- 61
2019-02-09 16:00:00 16.4 9 Oeste 18 Sudoeste 0 -- -- 58
2019-02-09 15:00:00 16.4 6 Sudoeste 18 Sudoeste 0 -- -- 59
2019-02-09 14:00:00 15 9 Sur 18 Sur 0 -- -- 67
2019-02-09 13:00:00 13.3 10 Sur 21 Sudoeste 0 -- -- 73
2019-02-09 12:00:00 11.8 12 Sur 19 Sur 0 -- -- 77
2019-02-09 11:00:00 11.2 9 Sur 15 Sur 0 -- -- 80
2019-02-09 10:00:00 8.2 0 Calma 4 Este 0 -- -- 92
2019-02-09 09:00:00 5.1 4 Noroeste 8 Noroeste 0 -- -- 99
2019-02-09 08:00:00 4.6 2 Sudoeste 10 Noroeste 0 -- -- 98
2019-02-09 07:00:00 4.8 4 Oeste 10 Oeste 0 -- -- 98
2019-02-09 06:00:00 5 5 Noroeste 12 Noroeste 0 -- -- 97
2019-02-09 05:00:00 5.3 5 Oeste 12 Noroeste 0 -- -- 96
2019-02-09 04:00:00 6.2 10 Noroeste 16 Noroeste 0 -- -- 93
2019-02-09 03:00:00 7.7 8 Noroeste 14 Noroeste 0 -- -- 88
2019-02-09 02:00:00 7.8 9 Noroeste 14 Noroeste 0 -- -- 89
2019-02-09 01:00:00 8.5 8 Norte 13 Norte 0 -- -- 87
2019-02-09 00:00:00 8.5 10 Noroeste 17 Noroeste 0 -- -- 88
2019-02-08 23:00:00 9.3 10 Noroeste 17 Noroeste 0 -- -- 84
2019-02-08 22:00:00 10.5 12 Noroeste 18 Noroeste 0 -- -- 80
2019-02-08 21:00:00 10.7 6 Norte 12 Norte 0 -- -- 79
2019-02-08 20:00:00 11.8 7 Norte 13 Noroeste 0 -- -- 76
2019-02-08 19:00:00 13.2 8 Noroeste 16 Noroeste 0 -- -- 70
2019-02-08 18:00:00 15.4 12 Noroeste 19 Oeste 0 -- -- 60
2019-02-08 17:00:00 16.3 11 Noroeste 18 Oeste 0 -- -- 59
2019-02-08 16:00:00 16.3 7 Noroeste 15 Noroeste 0 -- -- 57
2019-02-08 15:00:00 15.9 9 Noroeste 15 Oeste 0 -- -- 56
2019-02-08 14:00:00 15 7 Noroeste 14 Noroeste 0 -- -- 62
2019-02-08 13:00:00 13.9 9 Noroeste 14 Noroeste 0 -- -- 68
2019-02-08 12:00:00 13.1 4 Noroeste 7 Noroeste 0 -- -- 73
2019-02-08 11:00:00 10.5 3 Noroeste 5 Sudoeste 0 -- -- 81
2019-02-08 10:00:00 7 4 Noroeste 10 Noroeste 0 -- -- 90
2019-02-08 09:00:00 5.1 4 Sudoeste 13 Oeste 0 -- -- 94
2019-02-08 08:00:00 5.1 5 Oeste 12 Oeste 0 -- -- 93
2019-02-08 07:00:00 5.9 5 Oeste 9 Noroeste 0 -- -- 91
2019-02-08 06:00:00 6.3 3 Sudoeste 6 Oeste 0 -- -- 90
2019-02-08 05:00:00 6.1 5 Oeste 11 Noroeste 0 -- -- 91
2019-02-08 04:00:00 6.8 6 Oeste 10 Noroeste 0 -- -- 87
2019-02-08 03:00:00 7.3 6 Oeste 10 Oeste 0 -- -- 82
2019-02-08 02:00:00 7.6 6 Oeste 13 Oeste 0 -- -- 83
2019-02-08 01:00:00 8.3 5 Oeste 14 Noroeste 0 -- -- 81
2019-02-08 00:00:00 8.9 12 Noroeste 14 Noroeste 0 -- -- 77
2019-02-07 23:00:00 10.6 9 Noroeste 17 Noroeste 0 -- -- 68
2019-02-07 22:00:00 11.3 11 Noroeste 18 Norte 0 -- -- 67
2019-02-07 21:00:00 11.3 10 Noroeste 14 Noroeste 0 -- -- 67
2019-02-07 20:00:00 11.7 7 Noroeste 17 Norte 0 -- -- 62
2019-02-07 19:00:00 13.2 11 Noroeste 23 Noroeste 0 -- -- 56
2019-02-07 18:00:00 15.2 17 Noroeste 26 Noroeste 0 -- -- 51
2019-02-07 17:00:00 16.4 15 Noroeste 25 Oeste 0 -- -- 54
2019-02-07 16:00:00 16.4 15 Noroeste 23 Noroeste 0 -- -- 54
2019-02-07 15:00:00 16.2 15 Noroeste 21 Noroeste 0 -- -- 54
2019-02-07 14:00:00 15.2 13 Noroeste 23 Noroeste 0 -- -- 60
2019-02-07 13:00:00 14.3 14 Noroeste 21 Noroeste 0 -- -- 56
2019-02-07 12:00:00 12 10 Noroeste 19 Noroeste 0 -- -- 73
2019-02-07 11:00:00 9.6 10 Noroeste 19 Noroeste 0 -- -- 83
2019-02-07 10:00:00 7.4 9 Noroeste 17 Noroeste 0 -- -- 90
2019-02-07 09:00:00 5.4 12 Noroeste 23 Noroeste 0 -- -- 95
2019-02-07 08:00:00 5.8 16 Noroeste 23 Noroeste 0 -- -- 95
2019-02-07 07:00:00 6.7 17 Noroeste 22 Noroeste 0 -- -- 92
2019-02-07 06:00:00 6.8 12 Noroeste 18 Oeste 0 -- -- 93
2019-02-07 05:00:00 7.8 10 Noroeste 17 Noroeste 0 -- -- 90
2019-02-07 04:00:00 8.1 11 Noroeste 19 Noroeste 0 -- -- 89
2019-02-07 03:00:00 8.3 14 Noroeste 19 Noroeste 0 -- -- 88
2019-02-07 02:00:00 9.1 12 Noroeste 16 Noroeste 0 -- -- 85
2019-02-07 01:00:00 10.1 11 Noroeste 19 Noroeste 0 -- -- 80
2019-02-07 00:00:00 10.9 13 Noroeste 15 Noroeste 0 -- -- 74
2019-02-06 23:00:00 12.7 10 Noroeste 13 Norte 0 -- -- 64
2019-02-06 22:00:00 13.3 8 Norte 12 Noroeste 0 -- -- 60
2019-02-06 21:00:00 13.5 6 Noroeste 9 Norte 0 -- -- 61
2019-02-06 20:00:00 14.2 6 Noroeste 9 Noroeste 0 -- -- 60
2019-02-06 19:00:00 15.4 8 Noroeste 10 Noroeste 0 -- -- 55
2019-02-06 18:00:00 16.8 6 Oeste 17 Noroeste 0 -- -- 51
2019-02-06 17:00:00 18.5 12 Noroeste 21 Noroeste 0 -- -- 42
2019-02-06 16:00:00 19.2 10 Noroeste 21 Oeste 0 -- -- 49
2019-02-06 15:00:00 18.9 9 Sudoeste 17 Sudoeste 0 -- -- 45
2019-02-06 14:00:00 18.5 7 Sudoeste 13 Sur 0 -- -- 48
2019-02-06 13:00:00 18.4 5 Sur 12 Sudoeste 0 -- -- 46
2019-02-06 12:00:00 16.8 4 Sudeste 9 Este 0 -- -- 49
2019-02-06 11:00:00 14.3 3 Este 6 Este 0 -- -- 61
2019-02-06 10:00:00 12.2 0 Calma 3 Norte 0 -- -- 58
2019-02-06 09:00:00 10.3 3 Este 9 Este 0 -- -- 61
2019-02-06 08:00:00 9.5 5 Este 6 Este 0 -- -- 65
2019-02-06 07:00:00 10.5 4 Este 5 Este 0 -- -- 61
2019-02-06 06:00:00 10.6 4 Este 4 Este 0 -- -- 60
2019-02-06 05:00:00 10.1 3 Este 5 Este 0 -- -- 64
2019-02-06 04:00:00 8.3 2 Oeste 5 Nordeste 0 -- -- 76
2019-02-06 03:00:00 10.5 4 Este 4 Nordeste 0 -- -- 63
2019-02-06 02:00:00 10.9 3 Nordeste -- -- 0 -- -- 62
2019-02-06 01:00:00 10.6 0 Calma 5 Norte 0 -- -- 64
2019-02-06 00:00:00 11.1 0 Calma 6 Noroeste 0 -- -- 63
2019-02-05 23:00:00 11.5 2 Oeste 8 Noroeste 0 -- -- 62
2019-02-05 22:00:00 12.8 4 Oeste 7 Sudoeste 0 -- -- 57
2019-02-05 21:00:00 13.3 3 Noroeste 11 Noroeste 0 -- -- 55
2019-02-05 20:00:00 13.7 9 Noroeste 11 Noroeste 0 -- -- 48
2019-02-05 19:00:00 15.5 7 Oeste 13 Noroeste 0 -- -- 43
2019-02-05 18:00:00 18.2 8 Noroeste 13 Noroeste 0 -- -- 41
2019-02-05 17:00:00 18.9 4 Norte 13 Noroeste 0 -- -- 33
2019-02-05 16:00:00 19.2 3 Este 9 Noroeste 0 -- -- 34
2019-02-05 15:00:00 18.1 5 Norte 10 Nordeste 0 -- -- 30
2019-02-05 14:00:00 17.5 3 Norte 10 Este 0 -- -- 31
2019-02-05 13:00:00 16.6 6 Este 11 Este 0 -- -- 40
2019-02-05 12:00:00 15.4 8 Este 13 Este 0 -- -- 39
2019-02-05 11:00:00 13.3 4 Este 8 Sudeste 0 -- -- 49
2019-02-05 10:00:00 10.8 2 Sudeste 5 Sudeste 0 -- -- 60
2019-02-05 09:00:00 8.4 3 Nordeste 8 Este 0 -- -- 54
2019-02-05 08:00:00 7.4 3 Este 5 Este 0 -- -- 56
2019-02-05 07:00:00 6.7 0 Calma 4 Este 0 -- -- 69
2019-02-05 06:00:00 6 0 Calma 4 Noroeste 0 -- -- 75
2019-02-05 05:00:00 6.8 5 Noroeste 5 Noroeste 0 -- -- 72
2019-02-05 04:00:00 7.3 3 Sudoeste 6 Noroeste 0 -- -- 67
2019-02-05 03:00:00 7.5 3 Noroeste 10 Noroeste 0 -- -- 67
2019-02-05 02:00:00 8 5 Noroeste -- -- 0 -- -- 66
2019-02-05 01:00:00 7.9 6 Noroeste 7 Noroeste 0 -- -- 67
2019-02-05 00:00:00 8.6 4 Norte 7 Norte 0 -- -- 64
2019-02-04 23:00:00 8.1 2 Noroeste 9 Noroeste 0 -- -- 67
2019-02-04 22:00:00 8.4 7 Noroeste 12 Noroeste 0 -- -- 65
2019-02-04 21:00:00 8.8 10 Noroeste 17 Noroeste 0 -- -- 64
2019-02-04 20:00:00 9.5 11 Noroeste 17 Noroeste 0 -- -- 64
2019-02-04 19:00:00 11.4 10 Noroeste 15 Noroeste 0 -- -- 57
2019-02-04 18:00:00 14.7 9 Noroeste 16 Oeste 0 -- -- 43
2019-02-04 17:00:00 15.6 5 Noroeste 10 Norte 0 -- -- 39
2019-02-04 16:00:00 15 6 Norte 14 Norte 0 -- -- 37
2019-02-04 15:00:00 14.4 7 Norte 13 Nordeste 0 -- -- 42
2019-02-04 14:00:00 13.4 6 Nordeste 13 Norte 0 -- -- 42
2019-02-04 13:00:00 12.2 6 Nordeste 16 Sudeste 0 -- -- 42
2019-02-04 12:00:00 11.2 7 Este 15 Este 0 -- -- 46
2019-02-04 11:00:00 9.9 8 Este 14 Este 0 -- -- 50
2019-02-04 10:00:00 8 6 Este 10 Este 0 -- -- 58
2019-02-04 09:00:00 5.4 4 Nordeste 6 Nordeste 0 -- -- 63
2019-02-04 08:00:00 4.6 3 Nordeste 6 Este 0 -- -- 65
2019-02-04 07:00:00 4.5 4 Este 12 Este 0 -- -- 66
2019-02-04 06:00:00 4.9 6 Este 11 Este 0 -- -- 66
2019-02-04 05:00:00 4.8 5 Este 9 Este 0 -- -- 68
2019-02-04 04:00:00 5.6 3 Este 6 Este 0 -- -- 64
2019-02-04 03:00:00 5.4 5 Este 11 Nordeste 0 -- -- 65
2019-02-04 02:00:00 5.4 4 Nordeste 7 Este 0 -- -- 67
2019-02-04 01:00:00 5.7 4 Este 10 Este 0 -- -- 68
2019-02-04 00:00:00 5.7 5 Nordeste 10 Este 0 -- -- 69
2019-02-03 23:00:00 6.1 4 Nordeste 10 Nordeste 0 -- -- 67
2019-02-03 22:00:00 6.9 4 Norte 15 Norte 0 -- -- 63
2019-02-03 21:00:00 7 8 Norte 17 Norte 0 -- -- 63
2019-02-03 20:00:00 7.7 10 Noroeste 19 Norte 0 -- -- 58
2019-02-03 19:00:00 9.4 9 Norte 20 Norte 0 -- -- 55
2019-02-03 18:00:00 11.3 10 Norte 23 Norte 0 -- -- 45
2019-02-03 17:00:00 11.9 14 Norte 24 Norte 0 -- -- 42
2019-02-03 16:00:00 12.2 11 Norte 25 Norte 0 -- -- 43
2019-02-03 15:00:00 11.7 11 Norte 28 Norte 0 -- -- 44
2019-02-03 14:00:00 10.9 18 Norte 30 Norte 0 -- -- 49
2019-02-03 13:00:00 10 14 Norte 32 Norte 0 -- -- 56
2019-02-03 12:00:00 7.9 14 Norte 28 Norte 0 -- -- 73
2019-02-03 11:00:00 5.6 14 Noroeste 26 Noroeste 0 -- -- 87
2019-02-03 10:00:00 3.2 13 Noroeste 19 Noroeste 0 -- -- 97
2019-02-03 09:00:00 1.2 12 Noroeste 18 Noroeste 0 -- -- 99
2019-02-03 08:00:00 1 12 Noroeste 18 Oeste 0 -- -- 99
2019-02-03 07:00:00 1.5 12 Noroeste 20 Noroeste 0 -- -- 97
2019-02-03 06:00:00 2.3 10 Noroeste 15 Noroeste 0 -- -- 94
2019-02-03 05:00:00 2.4 6 Noroeste 13 Noroeste 0 -- -- 91
2019-02-03 04:00:00 2.6 9 Noroeste 16 Noroeste 0 -- -- 91
2019-02-03 03:00:00 2.8 10 Noroeste 17 Noroeste 0 -- -- 90
2019-02-03 02:00:00 3.3 11 Noroeste 17 Oeste 0 -- -- 87
2019-02-03 01:00:00 4 9 Noroeste 18 Noroeste 0 -- -- 82
2019-02-03 00:00:00 4.7 9 Noroeste 19 Norte 0 -- -- 77
2019-02-02 23:00:00 6 13 Norte 24 Noroeste 0 -- -- 71
2019-02-02 22:00:00 6.8 14 Noroeste 22 Noroeste 0 -- -- 65
2019-02-02 21:00:00 7 8 Norte 22 Norte 0 -- -- 64
2019-02-02 20:00:00 8 14 Noroeste 24 Norte 0 -- -- 58
2019-02-02 19:00:00 9.1 17 Norte 34 Noroeste 0 -- -- 50
2019-02-02 18:00:00 10.8 21 Noroeste 40 Noroeste 0 -- -- 44
2019-02-02 17:00:00 11.2 25 Norte 49 Norte 0 -- -- 45
2019-02-02 16:00:00 11.2 30 Noroeste 48 Norte 0 -- -- 45
2019-02-02 15:00:00 11 31 Noroeste 55 Noroeste 0 -- -- 45
2019-02-02 14:00:00 10.9 34 Noroeste 62 Noroeste 0 -- -- 48
2019-02-02 13:00:00 10.2 30 Norte 58 Noroeste 0 -- -- 59
2019-02-02 12:00:00 9.1 35 Noroeste 61 Noroeste 0 -- -- 65
2019-02-02 11:00:00 8.1 25 Noroeste 42 Noroeste 0 -- -- 74
2019-02-02 10:00:00 6.8 24 Noroeste 40 Noroeste 0 -- -- 85
2019-02-02 09:00:00 5.9 19 Noroeste 34 Noroeste 0 -- -- 90
2019-02-02 08:00:00 6 22 Noroeste 36 Noroeste 0 -- -- 91
2019-02-02 07:00:00 6.2 14 Noroeste 34 Noroeste 0 -- -- 92
2019-02-02 06:00:00 6.9 21 Noroeste 36 Noroeste 0 -- -- 89
2019-02-02 05:00:00 6.7 15 Noroeste 29 Noroeste 0 -- -- 90
2019-02-02 04:00:00 7 17 Noroeste 30 Oeste 0 -- -- 89
2019-02-02 03:00:00 7.2 20 Noroeste 34 Noroeste 0 -- -- 90
2019-02-02 02:00:00 7 20 Noroeste 36 Noroeste 0 -- -- 91
2019-02-02 01:00:00 7.2 21 Noroeste 35 Noroeste 0 -- -- 90
2019-02-02 00:00:00 6.9 19 Oeste 34 Oeste 0 -- -- 91
2019-02-01 23:00:00 7 21 Oeste 31 Oeste 0 -- -- 87
2019-02-01 22:00:00 6.8 17 Noroeste 36 Noroeste 0 -- -- 87
2019-02-01 21:00:00 6.4 17 Noroeste 58 Noroeste 0 -- -- 91
2019-02-01 20:00:00 9.2 21 Noroeste 40 Oeste 0 -- -- 75
2019-02-01 19:00:00 10 24 Noroeste 46 Noroeste 0 -- -- 75
2019-02-01 18:00:00 10.9 29 Noroeste 62 Oeste 0.2 -- -- 76
2019-02-01 17:00:00 10.7 35 Oeste 58 Noroeste 0 -- -- 79
2019-02-01 16:00:00 10.9 31 Oeste 69 Oeste 0.2 -- -- 76
2019-02-01 15:00:00 12.5 29 Noroeste 55 Oeste 0 -- -- 73
2019-02-01 14:00:00 11.3 22 Oeste 64 Noroeste 0.4 -- -- 81
2019-02-01 13:00:00 11.7 26 Noroeste 46 Oeste 0.2 -- -- 80
2019-02-01 12:00:00 11.6 29 Oeste 44 Oeste 0 -- -- 74
2019-02-01 11:00:00 11 21 Oeste 45 Noroeste 0 -- -- 83
2019-02-01 10:00:00 9.6 20 Noroeste 38 Noroeste 0.2 -- -- 92
2019-02-01 09:00:00 9.4 23 Noroeste 45 Oeste 0 -- -- 94
2019-02-01 08:00:00 10 19 Oeste 32 Oeste 0 -- -- 98
2019-02-01 07:00:00 9.8 18 Noroeste 29 Noroeste 0 -- -- 99
2019-02-01 06:00:00 9.9 20 Noroeste 55 Noroeste 1.8 -- -- 98
2019-02-01 05:00:00 12.3 24 Oeste 42 Oeste 1.8 -- -- 99
2019-02-01 04:00:00 12.7 21 Oeste 32 Oeste 8.6 -- -- 100
2019-02-01 03:00:00 13 17 Sudoeste 33 Sudoeste 5.2 -- -- 100
2019-02-01 02:00:00 12.9 24 Sudoeste 41 Sudoeste 2.2 -- -- 100
2019-02-01 01:00:00 12.7 23 Sudoeste 35 Sudoeste 0.6 -- -- 100
2019-02-01 00:00:00 12.2 21 Sudoeste 33 Sudoeste 0 -- -- 99
2019-01-31 23:00:00 11.7 21 Sur 30 Sudoeste 0 -- -- 96
2019-01-31 22:00:00 12.2 17 Sudoeste 27 Sudoeste 0 -- -- 94
2019-01-31 21:00:00 12.5 15 Sudoeste 30 Sudoeste 0 -- -- 93
2019-01-31 20:00:00 12.9 13 Sudoeste 22 Noroeste 0 -- -- 85
2019-01-31 19:00:00 13.3 13 Oeste 26 Oeste 0 -- -- 88
2019-01-31 18:00:00 13.7 10 Sudoeste 24 Sudoeste 0.2 -- -- 89
2019-01-31 17:00:00 14.1 12 Oeste 29 Oeste 0 -- -- 86
2019-01-31 16:00:00 13.1 17 Oeste 36 Oeste 1.2 -- -- 91
2019-01-31 15:00:00 14 19 Sudoeste 33 Sudoeste 0 -- -- 91
2019-01-31 14:00:00 15.4 15 Sudoeste 36 Oeste 0 -- -- 77
2019-01-31 13:00:00 15.2 21 Oeste 39 Oeste 0 -- -- 77
2019-01-31 12:00:00 14.4 21 Sudoeste 33 Oeste 0 -- -- 81
2019-01-31 11:00:00 13.3 19 Oeste 33 Oeste 0 -- -- 90
2019-01-31 10:00:00 11.8 10 Oeste 29 Oeste 0 -- -- 97
2019-01-31 09:00:00 11.4 13 Oeste 29 Noroeste 0 -- -- 99
2019-01-31 08:00:00 11.5 17 Oeste 31 Oeste 0 -- -- 98
2019-01-31 07:00:00 11.7 16 Oeste 34 Oeste 0 -- -- 97
2019-01-31 06:00:00 11.7 14 Oeste 31 Oeste 0 -- -- 99
2019-01-31 05:00:00 11.6 17 Oeste 33 Oeste 0 -- -- 99
2019-01-31 04:00:00 11.4 13 Oeste 24 Oeste 0 -- -- 99
2019-01-31 03:00:00 11.4 14 Oeste 33 Oeste 0 -- -- 99
2019-01-31 02:00:00 11 13 Oeste 24 Oeste 0 -- -- 100
2019-01-31 01:00:00 10.8 15 Sudoeste 27 Sudoeste 0.4 -- -- 98
2019-01-31 00:00:00 11 13 Sudoeste 21 Oeste 0 -- -- 96
2019-01-30 23:00:00 10.9 11 Oeste 19 Sudoeste 0 -- -- 97
2019-01-30 22:00:00 10.9 8 Oeste 17 Oeste 0 -- -- 98
2019-01-30 21:00:00 11.1 9 Oeste 18 Oeste 0 -- -- 98
2019-01-30 20:00:00 11.4 10 Oeste 24 Oeste 0.2 -- -- 99
2019-01-30 19:00:00 11.6 9 Oeste 21 Noroeste 0.4 -- -- 99
2019-01-30 18:00:00 11.7 10 Oeste 21 Oeste 0.6 -- -- 98
2019-01-30 17:00:00 11.5 10 Oeste 20 Oeste 1.8 -- -- 98
2019-01-30 16:00:00 11.7 9 Oeste 16 Oeste 0.2 -- -- 92
2019-01-30 15:00:00 11.7 8 Oeste 18 Oeste 0.2 -- -- 90
2019-01-30 14:00:00 11.2 11 Noroeste 18 Noroeste 0 -- -- 91
2019-01-30 13:00:00 10.6 10 Noroeste 18 Noroeste 0 -- -- 91
2019-01-30 12:00:00 10.1 12 Noroeste 18 Noroeste 0 -- -- 94
2019-01-30 11:00:00 9.4 10 Noroeste 15 Noroeste 0 -- -- 98
2019-01-30 10:00:00 9 7 Noroeste 13 Noroeste 0 -- -- 100
2019-01-30 09:00:00 8.7 9 Noroeste 15 Noroeste 0 -- -- 100
2019-01-30 08:00:00 8.9 10 Noroeste 22 Oeste 0 -- -- 99
2019-01-30 07:00:00 9 11 Noroeste 19 Noroeste 0 -- -- 98
2019-01-30 06:00:00 9.5 13 Noroeste 24 Noroeste 0 -- -- 97
2019-01-30 05:00:00 10 15 Noroeste 30 Noroeste 0 -- -- 97
2019-01-30 04:00:00 10.5 18 Noroeste 28 Noroeste 0.2 -- -- 100
2019-01-30 03:00:00 10.2 13 Noroeste 35 Noroeste 0.4 -- -- 99
2019-01-30 02:00:00 10.4 21 Noroeste 31 Noroeste 0 -- -- 97
2019-01-30 01:00:00 10.1 17 Oeste 30 Oeste 0 -- -- 96
2019-01-30 00:00:00 9.8 16 Oeste 31 Noroeste 0 -- -- 95
2019-01-29 23:00:00 9.7 18 Oeste 31 Oeste 0 -- -- 93
2019-01-29 22:00:00 9.9 17 Oeste 27 Oeste 0 -- -- 91
2019-01-29 21:00:00 10.4 14 Noroeste 27 Noroeste 0 -- -- 89
2019-01-29 20:00:00 10.7 15 Noroeste 26 Oeste 0 -- -- 88
2019-01-29 19:00:00 11.6 14 Noroeste 29 Noroeste 0 -- -- 82
2019-01-29 18:00:00 12.5 15 Noroeste 38 Noroeste 0 -- -- 78
2019-01-29 17:00:00 13.6 20 Noroeste 39 Noroeste 0 -- -- 75
2019-01-29 16:00:00 13.5 18 Noroeste 39 Noroeste 0 -- -- 73
2019-01-29 15:00:00 13.8 19 Noroeste 34 Oeste 0 -- -- 73
2019-01-29 14:00:00 13.4 19 Noroeste 32 Noroeste 0 -- -- 78
2019-01-29 13:00:00 12.4 16 Noroeste 27 Noroeste 0 -- -- 85
2019-01-29 12:00:00 10.9 14 Noroeste 31 Noroeste 0 -- -- 96
2019-01-29 11:00:00 11 17 Noroeste 28 Noroeste 0 -- -- 91
2019-01-29 10:00:00 10 16 Noroeste 30 Noroeste 0 -- -- 92
2019-01-29 09:00:00 9.2 14 Noroeste 23 Noroeste 0 -- -- 96
2019-01-29 08:00:00 9 13 Noroeste 27 Noroeste 0 -- -- 96
2019-01-29 07:00:00 8.7 16 Noroeste 26 Oeste 0 -- -- 99
2019-01-29 06:00:00 8.6 15 Noroeste 25 Noroeste 0 -- -- 98
2019-01-29 05:00:00 8.4 18 Noroeste 33 Noroeste 0 -- -- 99
2019-01-29 04:00:00 8.5 20 Noroeste 32 Noroeste 0 -- -- 99
2019-01-29 03:00:00 8.6 18 Noroeste 34 Noroeste 0 -- -- 98
2019-01-29 02:00:00 8.8 24 Noroeste 38 Noroeste 0 -- -- 97
2019-01-29 01:00:00 8.8 20 Noroeste 31 Noroeste 0 -- -- 98
2019-01-29 00:00:00 8.2 15 Noroeste 31 Noroeste 0 -- -- 96
2019-01-28 23:00:00 8.8 17 Noroeste 32 Noroeste 0 -- -- 94
2019-01-28 22:00:00 9.3 15 Noroeste 25 Noroeste 0 -- -- 92
2019-01-28 21:00:00 10 16 Noroeste 30 Noroeste 0 -- -- 90
2019-01-28 20:00:00 10.6 16 Noroeste 31 Oeste 0 -- -- 87
2019-01-28 19:00:00 11.5 19 Noroeste 37 Noroeste 0 -- -- 83
2019-01-28 18:00:00 12.2 19 Noroeste 39 Noroeste 0 -- -- 77
2019-01-28 17:00:00 12.4 19 Noroeste 45 Noroeste 0 -- -- 75
2019-01-28 16:00:00 12.4 23 Noroeste 45 Norte 0 -- -- 75
2019-01-28 15:00:00 12.7 23 Noroeste 47 Noroeste 0 -- -- 70
2019-01-28 14:00:00 12.8 25 Noroeste 42 Noroeste 0 -- -- 69
2019-01-28 13:00:00 11.8 28 Norte 46 Norte 0 -- -- 73
2019-01-28 12:00:00 10.1 24 Noroeste 42 Noroeste 0 -- -- 82
2019-01-28 11:00:00 7.9 25 Noroeste 38 Noroeste 0 -- -- 90
2019-01-28 10:00:00 5.6 22 Noroeste 34 Noroeste 0 -- -- 97
2019-01-28 09:00:00 4.3 18 Noroeste 28 Noroeste 0 -- -- 99
2019-01-28 08:00:00 4.3 17 Noroeste 31 Noroeste 0 -- -- 98
2019-01-28 07:00:00 5 22 Noroeste 33 Noroeste 0 -- -- 96
2019-01-28 06:00:00 4.9 17 Noroeste 29 Noroeste 0 -- -- 96
2019-01-28 05:00:00 4.9 17 Noroeste 28 Noroeste 0 -- -- 95
2019-01-28 04:00:00 4.9 14 Noroeste 25 Noroeste 0 -- -- 94
2019-01-28 03:00:00 5.3 16 Noroeste 25 Noroeste 0 -- -- 92
2019-01-28 02:00:00 5.7 10 Noroeste 25 Noroeste 0 -- -- 90
2019-01-28 01:00:00 6.3 15 Noroeste 27 Noroeste 0 -- -- 86
2019-01-28 00:00:00 7.1 17 Noroeste 32 Noroeste 0 -- -- 82
2019-01-27 23:00:00 7.8 18 Noroeste 31 Noroeste 0 -- -- 79
2019-01-27 22:00:00 8.5 19 Noroeste 36 Norte 0 -- -- 74
2019-01-27 21:00:00 9 18 Noroeste 31 Noroeste 0 -- -- 71
2019-01-27 20:00:00 9.7 14 Noroeste 24 Noroeste 0 -- -- 69
2019-01-27 19:00:00 10.7 18 Norte 39 Norte 0 -- -- 64
2019-01-27 18:00:00 11.9 23 Norte 43 Norte 0 -- -- 60
2019-01-27 17:00:00 12.3 30 Norte 45 Norte 0 -- -- 61
2019-01-27 16:00:00 12.2 28 Noroeste 50 Noroeste 0 -- -- 63
2019-01-27 15:00:00 11.7 27 Noroeste 44 Norte 0 -- -- 66
2019-01-27 14:00:00 11.6 23 Noroeste 42 Norte 0 -- -- 69
2019-01-27 13:00:00 11.6 20 Norte 41 Norte 0 -- -- 79
2019-01-27 12:00:00 9.3 22 Noroeste 39 Noroeste 0 -- -- 94
2019-01-27 11:00:00 7.5 16 Noroeste 30 Noroeste 0 -- -- 100
2019-01-27 10:00:00 7 20 Noroeste 37 Noroeste 0 -- -- 100
2019-01-27 09:00:00 6.4 21 Noroeste 30 Noroeste 0 -- -- 100
2019-01-27 08:00:00 6 18 Noroeste 31 Noroeste 0 -- -- 100
2019-01-27 07:00:00 6 19 Noroeste 31 Noroeste 0 -- -- 100
2019-01-27 06:00:00 6.6 19 Noroeste 37 Noroeste 0 -- -- 100
2019-01-27 05:00:00 7.1 17 Noroeste 25 Noroeste 0 -- -- 100
2019-01-27 04:00:00 7 9 Noroeste 23 Noroeste 0 -- -- 99
2019-01-27 03:00:00 7 13 Noroeste 21 Noroeste 0 -- -- 97
2019-01-27 02:00:00 8.1 10 Noroeste 19 Noroeste 0 -- -- 92
2019-01-27 01:00:00 8.7 12 Noroeste 22 Noroeste 0 -- -- 88
2019-01-27 00:00:00 11.9 12 Oeste 17 Oeste 0 -- -- 74
2019-01-26 23:00:00 12.6 11 Noroeste 15 Oeste 0 -- -- 66
2019-01-26 22:00:00 14.2 10 Oeste 14 Oeste 0 -- -- 51
2019-01-26 21:00:00 14 9 Oeste 12 Oeste 0 -- -- 58
2019-01-26 20:00:00 14 9 Oeste 13 Sudoeste 0 -- -- 65
2019-01-26 19:00:00 15.1 7 Sudoeste 20 Sudoeste 0 -- -- 64
2019-01-26 18:00:00 17.9 16 Sudoeste 22 Sur 0 -- -- 58
2019-01-26 17:00:00 20.3 7 Oeste 14 Oeste 0 -- -- 42
2019-01-26 16:00:00 20.3 5 Sudoeste 13 Oeste 0 -- -- 38
2019-01-26 15:00:00 19.9 3 Este 11 Sudeste 0 -- -- 42
2019-01-26 14:00:00 19.3 5 Sudeste 16 Este 0 -- -- 41
2019-01-26 13:00:00 18 7 Sudeste 14 Sudeste 0 -- -- 47
2019-01-26 12:00:00 16.4 7 Este 13 Este 0 -- -- 54
2019-01-26 11:00:00 15.1 6 Este 9 Este 0 -- -- 61
2019-01-26 10:00:00 13.2 4 Este 8 Este 0 -- -- 71
2019-01-26 09:00:00 10.6 0 Calma 4 Nordeste 0 -- -- 80
2019-01-26 08:00:00 9.3 3 Nordeste 5 Nordeste 0 -- -- 88
2019-01-26 07:00:00 10.3 2 Este 3 Este 0 -- -- 81
2019-01-26 06:00:00 9.9 0 Calma 6 Este 0 -- -- 85
2019-01-26 05:00:00 11.4 5 Este 8 Este 0 -- -- 80
2019-01-26 04:00:00 12.5 5 Este 6 Este 0 -- -- 75
2019-01-26 03:00:00 11.9 4 Este 9 Este 0 -- -- 79
2019-01-26 02:00:00 11.6 0 Calma 3 Noroeste 0 -- -- 82
2019-01-26 01:00:00 13.3 2 Este 5 Noroeste 0 -- -- 75
2019-01-26 00:00:00 13 3 Noroeste 5 Noroeste 0 -- -- 76
2019-01-25 23:00:00 12.3 5 Noroeste 10 Noroeste 0 -- -- 79
2019-01-25 22:00:00 12.8 6 Noroeste 13 Noroeste 0 -- -- 79
2019-01-25 21:00:00 14.2 9 Noroeste 15 Noroeste 0 -- -- 76
2019-01-25 20:00:00 14.9 8 Noroeste 14 Noroeste 0 -- -- 74
2019-01-25 19:00:00 16 7 Noroeste 13 Noroeste 0 -- -- 69
2019-01-25 18:00:00 18.8 8 Noroeste 16 Noroeste 0 -- -- 58
2019-01-25 17:00:00 20 6 Norte 10 Noroeste 0 -- -- 55
2019-01-25 16:00:00 20.4 5 Sur 9 Sur 0 -- -- 51
2019-01-25 15:00:00 19.4 4 Norte 10 Noroeste 0 -- -- 56
2019-01-25 14:00:00 19.1 6 Este 16 Este 0 -- -- 54
2019-01-25 13:00:00 18 5 Este 13 Este 0 -- -- 59
2019-01-25 12:00:00 15.6 2 Norte 5 Norte 0 -- -- 74
2019-01-25 11:00:00 12.9 3 Este 6 Nordeste 0 -- -- 83
2019-01-25 10:00:00 9.6 0 Calma 4 Noroeste 0 -- -- 97
2019-01-25 09:00:00 7.9 0 Calma 6 Noroeste 0 -- -- 100
2019-01-25 08:00:00 6.9 5 Noroeste 10 Noroeste 0 -- -- 100
2019-01-25 07:00:00 7.4 6 Oeste 10 Oeste 0 -- -- 100
2019-01-25 06:00:00 7.9 6 Oeste 13 Oeste 0 -- -- 100
2019-01-25 05:00:00 8.2 5 Oeste 16 Noroeste 0 -- -- 100
2019-01-25 04:00:00 8.6 7 Oeste 14 Oeste 0 -- -- 99
2019-01-25 03:00:00 8.8 6 Oeste 13 Noroeste 0 -- -- 99
2019-01-25 02:00:00 9.1 8 Noroeste 16 Noroeste 0 -- -- 97
2019-01-25 01:00:00 10.1 11 Noroeste 18 Noroeste 0 -- -- 95
2019-01-25 00:00:00 10.4 11 Noroeste 17 Noroeste 0 -- -- 94
2019-01-24 23:00:00 11.3 8 Noroeste 24 Norte 0 -- -- 90
2019-01-24 22:00:00 12 10 Noroeste 21 Noroeste 0 -- -- 88
2019-01-24 21:00:00 12.8 12 Noroeste 21 Norte 0 -- -- 85
2019-01-24 20:00:00 13.8 14 Norte 22 Norte 0 -- -- 80
2019-01-24 19:00:00 15.1 10 Norte 20 Norte 0 -- -- 73
2019-01-24 18:00:00 16.9 14 Norte 29 Noroeste 0 -- -- 66
2019-01-24 17:00:00 17.3 15 Norte 27 Noroeste 0 -- -- 65
2019-01-24 16:00:00 16.9 15 Norte 33 Noroeste 0 -- -- 67
2019-01-24 15:00:00 16.6 12 Noroeste 35 Norte 0 -- -- 68
2019-01-24 14:00:00 16.3 20 Norte 36 Norte 0 -- -- 68
2019-01-24 13:00:00 15.6 20 Norte 40 Noroeste 0 -- -- 71
2019-01-24 12:00:00 14.1 21 Noroeste 35 Noroeste 0 -- -- 79
2019-01-24 11:00:00 12.2 22 Noroeste 42 Noroeste 0 -- -- 86
2019-01-24 10:00:00 11.3 24 Noroeste 42 Noroeste 0 -- -- 91
2019-01-24 09:00:00 10.8 19 Noroeste 30 Noroeste 0 -- -- 94
2019-01-24 08:00:00 10.7 17 Oeste 40 Noroeste 0 -- -- 94
2019-01-24 07:00:00 10.6 25 Noroeste 47 Norte 0 -- -- 94
2019-01-24 06:00:00 10.8 27 Noroeste 42 Noroeste 0 -- -- 94
2019-01-24 05:00:00 10.7 20 Noroeste 39 Noroeste 0 -- -- 95
2019-01-24 04:00:00 10.3 24 Noroeste 41 Noroeste 0 -- -- 97
2019-01-24 03:00:00 10.2 23 Noroeste 51 Noroeste 0 -- -- 96
2019-01-24 02:00:00 10.5 31 Noroeste 45 Noroeste 0 -- -- 95
2019-01-24 01:00:00 10.9 26 Noroeste 42 Noroeste 0 -- -- 92
2019-01-24 00:00:00 11.4 23 Noroeste 40 Noroeste 0 -- -- 89